sensor_id;sensor_type;location;lat;lon;timestamp;P1;durP1;ratioP1;P2;durP2;ratioP2
9976;SDS011;5029;47.378;11.776;2023-03-01T00:01:41;14.00;;;12.60;;
9976;SDS011;5029;47.378;11.776;2023-03-01T00:06:45;12.90;;;11.53;;
9976;SDS011;5029;47.378;11.776;2023-03-01T00:11:50;12.00;;;10.80;;
9976;SDS011;5029;47.378;11.776;2023-03-01T00:16:53;12.33;;;11.03;;
9976;SDS011;5029;47.378;11.776;2023-03-01T00:21:57;12.47;;;11.20;;
9976;SDS011;5029;47.378;11.776;2023-03-01T00:27:01;12.97;;;11.67;;
9976;SDS011;5029;47.378;11.776;2023-03-01T00:32:05;12.80;;;11.53;;
9976;SDS011;5029;47.378;11.776;2023-03-01T00:37:08;13.27;;;11.97;;
9976;SDS011;5029;47.378;11.776;2023-03-01T00:42:13;13.13;;;11.60;;
9976;SDS011;5029;47.378;11.776;2023-03-01T00:47:16;12.77;;;11.33;;
9976;SDS011;5029;47.378;11.776;2023-03-01T00:52:20;12.63;;;11.27;;
9976;SDS011;5029;47.378;11.776;2023-03-01T00:57:25;12.90;;;11.47;;
9976;SDS011;5029;47.378;11.776;2023-03-01T01:02:28;12.17;;;10.97;;
9976;SDS011;5029;47.378;11.776;2023-03-01T01:07:32;14.07;;;12.67;;
9976;SDS011;5029;47.378;11.776;2023-03-01T01:12:37;14.20;;;11.63;;
9976;SDS011;5029;47.378;11.776;2023-03-01T01:17:40;13.23;;;11.93;;
9976;SDS011;5029;47.378;11.776;2023-03-01T01:22:43;13.17;;;11.87;;
9976;SDS011;5029;47.378;11.776;2023-03-01T01:27:48;13.67;;;12.23;;
9976;SDS011;5029;47.378;11.776;2023-03-01T01:32:51;13.77;;;12.10;;
9976;SDS011;5029;47.378;11.776;2023-03-01T01:37:54;15.13;;;13.13;;
9976;SDS011;5029;47.378;11.776;2023-03-01T01:42:59;13.53;;;11.90;;
9976;SDS011;5029;47.378;11.776;2023-03-01T01:48:03;13.43;;;12.13;;
9976;SDS011;5029;47.378;11.776;2023-03-01T01:53:13;13.77;;;12.43;;
9976;SDS011;5029;47.378;11.776;2023-03-01T01:58:21;13.53;;;12.10;;
9976;SDS011;5029;47.378;11.776;2023-03-01T02:03:27;14.03;;;12.70;;
9976;SDS011;5029;47.378;11.776;2023-03-01T02:08:39;14.00;;;12.60;;
9976;SDS011;5029;47.378;11.776;2023-03-01T02:13:45;14.63;;;13.03;;
9976;SDS011;5029;47.378;11.776;2023-03-01T02:18:50;13.47;;;12.07;;
9976;SDS011;5029;47.378;11.776;2023-03-01T02:23:54;14.97;;;12.83;;
9976;SDS011;5029;47.378;11.776;2023-03-01T02:29:00;13.80;;;12.40;;
9976;SDS011;5029;47.378;11.776;2023-03-01T02:34:03;14.57;;;13.07;;
9976;SDS011;5029;47.378;11.776;2023-03-01T02:39:08;14.63;;;13.23;;
9976;SDS011;5029;47.378;11.776;2023-03-01T02:44:20;14.23;;;12.83;;
9976;SDS011;5029;47.378;11.776;2023-03-01T02:49:24;14.53;;;13.00;;
9976;SDS011;5029;47.378;11.776;2023-03-01T02:54:30;14.47;;;13.07;;
9976;SDS011;5029;47.378;11.776;2023-03-01T02:59:40;14.13;;;12.63;;
9976;SDS011;5029;47.378;11.776;2023-03-01T03:04:45;14.40;;;12.90;;
9976;SDS011;5029;47.378;11.776;2023-03-01T03:09:48;13.73;;;12.43;;
9976;SDS011;5029;47.378;11.776;2023-03-01T03:14:53;13.50;;;12.20;;
9976;SDS011;5029;47.378;11.776;2023-03-01T03:19:56;14.67;;;13.17;;
9976;SDS011;5029;47.378;11.776;2023-03-01T03:24:59;13.97;;;12.57;;
9976;SDS011;5029;47.378;11.776;2023-03-01T03:30:05;14.70;;;13.20;;
9976;SDS011;5029;47.378;11.776;2023-03-01T03:35:10;14.83;;;13.13;;
9976;SDS011;5029;47.378;11.776;2023-03-01T03:40:13;14.30;;;12.90;;
9976;SDS011;5029;47.378;11.776;2023-03-01T03:45:18;16.97;;;13.83;;
9976;SDS011;5029;47.378;11.776;2023-03-01T03:50:22;15.20;;;13.23;;
9976;SDS011;5029;47.378;11.776;2023-03-01T03:55:25;14.70;;;12.87;;
9976;SDS011;5029;47.378;11.776;2023-03-01T04:00:33;17.40;;;13.33;;
9976;SDS011;5029;47.378;11.776;2023-03-01T04:05:38;14.47;;;13.07;;
9976;SDS011;5029;47.378;11.776;2023-03-01T04:10:43;14.57;;;13.07;;
9976;SDS011;5029;47.378;11.776;2023-03-01T04:15:49;14.93;;;13.23;;
9976;SDS011;5029;47.378;11.776;2023-03-01T04:20:53;14.73;;;13.30;;
9976;SDS011;5029;47.378;11.776;2023-03-01T04:25:58;14.57;;;13.07;;
9976;SDS011;5029;47.378;11.776;2023-03-01T04:31:04;14.53;;;13.13;;
9976;SDS011;5029;47.378;11.776;2023-03-01T04:36:15;14.67;;;13.17;;
9976;SDS011;5029;47.378;11.776;2023-03-01T04:41:20;14.80;;;13.30;;
9976;SDS011;5029;47.378;11.776;2023-03-01T04:46:26;15.27;;;13.77;;
9976;SDS011;5029;47.378;11.776;2023-03-01T04:51:30;15.37;;;13.90;;
9976;SDS011;5029;47.378;11.776;2023-03-01T04:56:34;16.30;;;13.90;;
9976;SDS011;5029;47.378;11.776;2023-03-01T05:01:39;14.90;;;13.40;;
9976;SDS011;5029;47.378;11.776;2023-03-01T05:06:44;15.43;;;13.83;;
9976;SDS011;5029;47.378;11.776;2023-03-01T05:11:47;15.00;;;13.43;;
9976;SDS011;5029;47.378;11.776;2023-03-01T05:16:52;15.90;;;14.27;;
9976;SDS011;5029;47.378;11.776;2023-03-01T05:21:56;17.17;;;15.27;;
9976;SDS011;5029;47.378;11.776;2023-03-01T05:27:06;16.07;;;14.37;;
9976;SDS011;5029;47.378;11.776;2023-03-01T05:32:10;16.57;;;14.87;;
9976;SDS011;5029;47.378;11.776;2023-03-01T05:37:17;17.77;;;15.87;;
9976;SDS011;5029;47.378;11.776;2023-03-01T05:42:20;16.90;;;15.20;;
9976;SDS011;5029;47.378;11.776;2023-03-01T05:47:25;16.13;;;14.50;;
9976;SDS011;5029;47.378;11.776;2023-03-01T05:52:28;16.27;;;14.60;;
9976;SDS011;5029;47.378;11.776;2023-03-01T05:57:32;16.63;;;13.80;;
9976;SDS011;5029;47.378;11.776;2023-03-01T06:02:36;16.03;;;14.33;;
9976;SDS011;5029;47.378;11.776;2023-03-01T06:07:39;21.03;;;15.43;;
9976;SDS011;5029;47.378;11.776;2023-03-01T06:12:43;18.30;;;14.53;;
9976;SDS011;5029;47.378;11.776;2023-03-01T06:17:48;13.83;;;12.30;;
9976;SDS011;5029;47.378;11.776;2023-03-01T06:22:52;14.47;;;11.90;;
9976;SDS011;5029;47.378;11.776;2023-03-01T06:27:55;16.07;;;12.10;;
9976;SDS011;5029;47.378;11.776;2023-03-01T06:33:00;14.47;;;12.27;;
9976;SDS011;5029;47.378;11.776;2023-03-01T06:38:05;12.03;;;10.73;;
9976;SDS011;5029;47.378;11.776;2023-03-01T06:43:09;15.20;;;10.67;;
9976;SDS011;5029;47.378;11.776;2023-03-01T06:48:13;12.30;;;10.33;;
9976;SDS011;5029;47.378;11.776;2023-03-01T06:53:17;12.37;;;10.00;;
9976;SDS011;5029;47.378;11.776;2023-03-01T06:58:20;11.40;;;10.30;;
9976;SDS011;5029;47.378;11.776;2023-03-01T07:03:25;13.77;;;9.90;;
9976;SDS011;5029;47.378;11.776;2023-03-01T07:08:28;18.23;;;16.40;;
9976;SDS011;5029;47.378;11.776;2023-03-01T07:13:31;14.87;;;11.30;;
9976;SDS011;5029;47.378;11.776;2023-03-01T07:18:36;14.67;;;12.53;;
9976;SDS011;5029;47.378;11.776;2023-03-01T07:23:39;16.53;;;12.33;;
9976;SDS011;5029;47.378;11.776;2023-03-01T07:28:43;12.67;;;10.53;;
9976;SDS011;5029;47.378;11.776;2023-03-01T07:33:47;11.33;;;9.33;;
9976;SDS011;5029;47.378;11.776;2023-03-01T07:38:51;13.27;;;10.10;;
9976;SDS011;5029;47.378;11.776;2023-03-01T07:43:54;12.43;;;10.43;;
9976;SDS011;5029;47.378;11.776;2023-03-01T07:48:59;10.87;;;9.70;;
9976;SDS011;5029;47.378;11.776;2023-03-01T07:54:02;12.40;;;10.57;;
9976;SDS011;5029;47.378;11.776;2023-03-01T07:59:09;11.97;;;9.83;;
9976;SDS011;5029;47.378;11.776;2023-03-01T08:04:14;10.63;;;9.63;;
9976;SDS011;5029;47.378;11.776;2023-03-01T08:09:17;11.60;;;9.57;;
9976;SDS011;5029;47.378;11.776;2023-03-01T08:14:20;14.90;;;11.50;;
9976;SDS011;5029;47.378;11.776;2023-03-01T08:19:25;12.30;;;11.03;;
9976;SDS011;5029;47.378;11.776;2023-03-01T08:24:29;16.77;;;12.30;;
9976;SDS011;5029;47.378;11.776;2023-03-01T08:29:32;12.60;;;10.97;;
9976;SDS011;5029;47.378;11.776;2023-03-01T08:34:38;15.60;;;12.93;;
9976;SDS011;5029;47.378;11.776;2023-03-01T08:39:42;16.07;;;14.40;;
9976;SDS011;5029;47.378;11.776;2023-03-01T08:44:46;15.90;;;14.23;;
9976;SDS011;5029;47.378;11.776;2023-03-01T08:49:51;16.20;;;14.67;;
9976;SDS011;5029;47.378;11.776;2023-03-01T08:54:54;15.70;;;14.10;;
9976;SDS011;5029;47.378;11.776;2023-03-01T08:59:57;15.47;;;13.87;;
9976;SDS011;5029;47.378;11.776;2023-03-01T09:05:02;16.93;;;14.67;;
9976;SDS011;5029;47.378;11.776;2023-03-01T09:10:06;15.70;;;14.10;;
9976;SDS011;5029;47.378;11.776;2023-03-01T09:15:10;15.80;;;14.27;;
9976;SDS011;5029;47.378;11.776;2023-03-01T09:20:15;15.67;;;14.17;;
9976;SDS011;5029;47.378;11.776;2023-03-01T09:25:20;14.70;;;13.20;;
9976;SDS011;5029;47.378;11.776;2023-03-01T09:30:23;14.73;;;13.27;;
9976;SDS011;5029;47.378;11.776;2023-03-01T09:35:28;14.17;;;12.63;;
9976;SDS011;5029;47.378;11.776;2023-03-01T09:40:31;13.23;;;11.93;;
9976;SDS011;5029;47.378;11.776;2023-03-01T09:45:35;13.00;;;11.60;;
9976;SDS011;5029;47.378;11.776;2023-03-01T09:50:43;13.60;;;12.30;;
9976;SDS011;5029;47.378;11.776;2023-03-01T09:55:49;12.27;;;11.03;;
9976;SDS011;5029;47.378;11.776;2023-03-01T10:00:59;11.17;;;10.07;;
9976;SDS011;5029;47.378;11.776;2023-03-01T10:06:11;13.50;;;11.63;;
9976;SDS011;5029;47.378;11.776;2023-03-01T10:11:35;12.90;;;10.97;;
9976;SDS011;5029;47.378;11.776;2023-03-01T10:16:42;11.97;;;10.77;;
9976;SDS011;5029;47.378;11.776;2023-03-01T10:21:52;11.50;;;10.40;;
9976;SDS011;5029;47.378;11.776;2023-03-01T10:26:56;11.23;;;10.13;;
9976;SDS011;5029;47.378;11.776;2023-03-01T10:32:04;10.30;;;9.30;;
9976;SDS011;5029;47.378;11.776;2023-03-01T10:37:11;11.23;;;10.13;;
9976;SDS011;5029;47.378;11.776;2023-03-01T10:42:19;11.23;;;10.20;;
9976;SDS011;5029;47.378;11.776;2023-03-01T10:47:28;11.47;;;10.37;;
9976;SDS011;5029;47.378;11.776;2023-03-01T10:52:34;12.87;;;10.00;;
9976;SDS011;5029;47.378;11.776;2023-03-01T10:57:39;12.40;;;9.77;;
9976;SDS011;5029;47.378;11.776;2023-03-01T11:02:43;11.20;;;10.10;;
9976;SDS011;5029;47.378;11.776;2023-03-01T11:07:51;10.03;;;9.03;;
9976;SDS011;5029;47.378;11.776;2023-03-01T11:13:05;10.53;;;9.57;;
9976;SDS011;5029;47.378;11.776;2023-03-01T11:18:20;12.33;;;10.53;;
9976;SDS011;5029;47.378;11.776;2023-03-01T11:23:42;10.57;;;9.57;;
9976;SDS011;5029;47.378;11.776;2023-03-01T11:28:50;9.97;;;8.80;;
9976;SDS011;5029;47.378;11.776;2023-03-01T11:33:58;10.17;;;9.17;;
9976;SDS011;5029;47.378;11.776;2023-03-01T11:44:30;10.90;;;9.70;;
9976;SDS011;5029;47.378;11.776;2023-03-01T11:55:33;11.53;;;10.43;;
9976;SDS011;5029;47.378;11.776;2023-03-01T12:00:52;10.40;;;9.27;;
9976;SDS011;5029;47.378;11.776;2023-03-01T12:06:09;10.50;;;9.50;;
9976;SDS011;5029;47.378;11.776;2023-03-01T12:11:28;8.50;;;7.60;;
9976;SDS011;5029;47.378;11.776;2023-03-01T12:22:21;10.60;;;9.60;;
9976;SDS011;5029;47.378;11.776;2023-03-01T12:27:38;9.67;;;8.67;;
9976;SDS011;5029;47.378;11.776;2023-03-01T12:33:08;11.57;;;10.37;;
9976;SDS011;5029;47.378;11.776;2023-03-01T12:38:24;10.83;;;9.70;;
9976;SDS011;5029;47.378;11.776;2023-03-01T12:43:41;10.17;;;9.17;;
9976;SDS011;5029;47.378;11.776;2023-03-01T12:48:56;10.50;;;9.50;;
9976;SDS011;5029;47.378;11.776;2023-03-01T12:54:11;10.17;;;9.10;;
9976;SDS011;5029;47.378;11.776;2023-03-01T12:59:23;8.40;;;7.60;;
9976;SDS011;5029;47.378;11.776;2023-03-01T13:04:35;9.23;;;8.43;;
9976;SDS011;5029;47.378;11.776;2023-03-01T13:09:48;9.23;;;8.33;;
9976;SDS011;5029;47.378;11.776;2023-03-01T13:14:58;9.77;;;8.87;;
9976;SDS011;5029;47.378;11.776;2023-03-01T13:20:02;9.50;;;8.57;;
9976;SDS011;5029;47.378;11.776;2023-03-01T13:25:13;10.57;;;9.40;;
9976;SDS011;5029;47.378;11.776;2023-03-01T13:30:39;9.40;;;8.43;;
9976;SDS011;5029;47.378;11.776;2023-03-01T13:35:44;10.87;;;9.87;;
9976;SDS011;5029;47.378;11.776;2023-03-01T13:46:12;11.40;;;10.20;;
9976;SDS011;5029;47.378;11.776;2023-03-01T13:51:21;10.97;;;9.97;;
9976;SDS011;5029;47.378;11.776;2023-03-01T13:56:28;11.37;;;9.93;;
9976;SDS011;5029;47.378;11.776;2023-03-01T14:01:39;10.00;;;9.10;;
9976;SDS011;5029;47.378;11.776;2023-03-01T14:06:44;11.87;;;10.70;;
9976;SDS011;5029;47.378;11.776;2023-03-01T14:12:00;11.43;;;10.33;;
9976;SDS011;5029;47.378;11.776;2023-03-01T14:17:24;12.03;;;10.93;;
9976;SDS011;5029;47.378;11.776;2023-03-01T14:22:44;12.33;;;10.80;;
9976;SDS011;5029;47.378;11.776;2023-03-01T14:27:56;12.87;;;11.70;;
9976;SDS011;5029;47.378;11.776;2023-03-01T14:33:18;12.27;;;10.00;;
9976;SDS011;5029;47.378;11.776;2023-03-01T14:38:27;11.93;;;10.73;;
9976;SDS011;5029;47.378;11.776;2023-03-01T14:43:32;11.97;;;10.67;;
9976;SDS011;5029;47.378;11.776;2023-03-01T14:48:39;11.27;;;10.07;;
9976;SDS011;5029;47.378;11.776;2023-03-01T14:53:42;11.00;;;9.83;;
9976;SDS011;5029;47.378;11.776;2023-03-01T14:58:52;10.87;;;9.83;;
9976;SDS011;5029;47.378;11.776;2023-03-01T15:03:57;11.17;;;10.07;;
9976;SDS011;5029;47.378;11.776;2023-03-01T15:09:02;12.33;;;10.53;;
9976;SDS011;5029;47.378;11.776;2023-03-01T15:19:29;12.87;;;11.20;;
9976;SDS011;5029;47.378;11.776;2023-03-01T15:24:32;12.37;;;10.97;;
9976;SDS011;5029;47.378;11.776;2023-03-01T15:29:37;11.67;;;10.47;;
9976;SDS011;5029;47.378;11.776;2023-03-01T15:34:43;10.83;;;9.63;;
9976;SDS011;5029;47.378;11.776;2023-03-01T15:39:52;14.13;;;10.60;;
9976;SDS011;5029;47.378;11.776;2023-03-01T15:45:07;12.80;;;11.50;;
9976;SDS011;5029;47.378;11.776;2023-03-01T15:50:15;11.97;;;10.77;;
9976;SDS011;5029;47.378;11.776;2023-03-01T15:55:23;13.50;;;12.10;;
9976;SDS011;5029;47.378;11.776;2023-03-01T16:00:30;12.77;;;11.10;;
9976;SDS011;5029;47.378;11.776;2023-03-01T16:05:35;14.10;;;11.77;;
9976;SDS011;5029;47.378;11.776;2023-03-01T16:10:39;14.53;;;13.03;;
9976;SDS011;5029;47.378;11.776;2023-03-01T16:15:46;14.67;;;12.90;;
9976;SDS011;5029;47.378;11.776;2023-03-01T16:20:51;14.50;;;11.97;;
9976;SDS011;5029;47.378;11.776;2023-03-01T16:25:58;13.37;;;11.97;;
9976;SDS011;5029;47.378;11.776;2023-03-01T16:31:02;17.83;;;13.87;;
9976;SDS011;5029;47.378;11.776;2023-03-01T16:36:08;15.17;;;12.83;;
9976;SDS011;5029;47.378;11.776;2023-03-01T16:41:14;14.90;;;13.20;;
9976;SDS011;5029;47.378;11.776;2023-03-01T16:46:20;14.97;;;13.03;;
9976;SDS011;5029;47.378;11.776;2023-03-01T16:51:27;13.23;;;11.93;;
9976;SDS011;5029;47.378;11.776;2023-03-01T16:56:32;15.37;;;13.17;;
9976;SDS011;5029;47.378;11.776;2023-03-01T17:01:38;16.03;;;14.37;;
9976;SDS011;5029;47.378;11.776;2023-03-01T17:06:47;14.50;;;12.67;;
9976;SDS011;5029;47.378;11.776;2023-03-01T17:11:52;13.00;;;10.90;;
9976;SDS011;5029;47.378;11.776;2023-03-01T17:16:56;16.33;;;14.57;;
9976;SDS011;5029;47.378;11.776;2023-03-01T17:22:02;15.80;;;13.77;;
9976;SDS011;5029;47.378;11.776;2023-03-01T17:27:06;15.67;;;13.93;;
9976;SDS011;5029;47.378;11.776;2023-03-01T17:32:10;15.93;;;14.23;;
9976;SDS011;5029;47.378;11.776;2023-03-01T17:37:19;16.27;;;14.47;;
9976;SDS011;5029;47.378;11.776;2023-03-01T17:42:24;16.97;;;14.60;;
9976;SDS011;5029;47.378;11.776;2023-03-01T17:47:28;18.33;;;15.37;;
9976;SDS011;5029;47.378;11.776;2023-03-01T17:52:33;17.97;;;14.30;;
9976;SDS011;5029;47.378;11.776;2023-03-01T17:57:37;17.20;;;13.70;;
9976;SDS011;5029;47.378;11.776;2023-03-01T18:02:41;17.73;;;14.30;;
9976;SDS011;5029;47.378;11.776;2023-03-01T18:07:49;18.23;;;14.80;;
9976;SDS011;5029;47.378;11.776;2023-03-01T18:12:53;17.67;;;15.77;;
9976;SDS011;5029;47.378;11.776;2023-03-01T18:17:58;15.33;;;13.73;;
9976;SDS011;5029;47.378;11.776;2023-03-01T18:23:05;16.53;;;14.73;;
9976;SDS011;5029;47.378;11.776;2023-03-01T18:28:09;16.60;;;14.70;;
9976;SDS011;5029;47.378;11.776;2023-03-01T18:33:13;17.80;;;14.93;;
9976;SDS011;5029;47.378;11.776;2023-03-01T18:38:20;18.90;;;16.00;;
9976;SDS011;5029;47.378;11.776;2023-03-01T18:43:24;15.93;;;14.33;;
9976;SDS011;5029;47.378;11.776;2023-03-01T18:48:30;15.83;;;14.17;;
9976;SDS011;5029;47.378;11.776;2023-03-01T18:53:39;18.87;;;14.77;;
9976;SDS011;5029;47.378;11.776;2023-03-01T18:58:44;19.87;;;15.63;;
9976;SDS011;5029;47.378;11.776;2023-03-01T19:03:48;17.43;;;14.87;;
9976;SDS011;5029;47.378;11.776;2023-03-01T19:08:55;18.40;;;15.53;;
9976;SDS011;5029;47.378;11.776;2023-03-01T19:14:02;16.97;;;14.83;;
9976;SDS011;5029;47.378;11.776;2023-03-01T19:19:07;19.80;;;16.47;;
9976;SDS011;5029;47.378;11.776;2023-03-01T19:24:14;17.37;;;14.83;;
9976;SDS011;5029;47.378;11.776;2023-03-01T19:29:18;15.57;;;13.80;;
9976;SDS011;5029;47.378;11.776;2023-03-01T19:34:24;17.10;;;15.33;;
9976;SDS011;5029;47.378;11.776;2023-03-01T19:39:32;17.13;;;15.30;;
9976;SDS011;5029;47.378;11.776;2023-03-01T19:44:37;16.57;;;14.47;;
9976;SDS011;5029;47.378;11.776;2023-03-01T19:49:42;18.17;;;15.50;;
9976;SDS011;5029;47.378;11.776;2023-03-01T19:54:49;17.30;;;15.50;;
9976;SDS011;5029;47.378;11.776;2023-03-01T20:00:09;17.67;;;15.33;;
9976;SDS011;5029;47.378;11.776;2023-03-01T20:05:19;18.07;;;15.07;;
9976;SDS011;5029;47.378;11.776;2023-03-01T20:10:27;16.23;;;14.47;;
9976;SDS011;5029;47.378;11.776;2023-03-01T20:15:32;19.87;;;15.10;;
9976;SDS011;5029;47.378;11.776;2023-03-01T20:20:38;18.23;;;15.30;;
9976;SDS011;5029;47.378;11.776;2023-03-01T20:25:45;17.00;;;14.73;;
9976;SDS011;5029;47.378;11.776;2023-03-01T20:30:51;17.53;;;15.13;;
9976;SDS011;5029;47.378;11.776;2023-03-01T20:35:56;17.77;;;15.40;;
9976;SDS011;5029;47.378;11.776;2023-03-01T20:41:03;19.43;;;16.50;;
9976;SDS011;5029;47.378;11.776;2023-03-01T20:46:09;17.33;;;15.37;;
9976;SDS011;5029;47.378;11.776;2023-03-01T20:51:16;17.63;;;15.73;;
9976;SDS011;5029;47.378;11.776;2023-03-01T20:56:23;17.33;;;15.47;;
9976;SDS011;5029;47.378;11.776;2023-03-01T21:01:29;18.83;;;15.77;;
9976;SDS011;5029;47.378;11.776;2023-03-01T21:06:33;20.87;;;17.13;;
9976;SDS011;5029;47.378;11.776;2023-03-01T21:11:39;19.00;;;16.13;;
9976;SDS011;5029;47.378;11.776;2023-03-01T21:16:43;17.77;;;15.87;;
9976;SDS011;5029;47.378;11.776;2023-03-01T21:21:47;18.77;;;15.23;;
9976;SDS011;5029;47.378;11.776;2023-03-01T21:26:53;18.33;;;16.27;;
9976;SDS011;5029;47.378;11.776;2023-03-01T21:31:57;21.37;;;16.00;;
9976;SDS011;5029;47.378;11.776;2023-03-01T21:37:05;20.93;;;16.97;;
9976;SDS011;5029;47.378;11.776;2023-03-01T21:42:11;20.97;;;15.90;;
9976;SDS011;5029;47.378;11.776;2023-03-01T21:47:14;18.33;;;16.43;;
9976;SDS011;5029;47.378;11.776;2023-03-01T21:52:17;17.87;;;15.70;;
9976;SDS011;5029;47.378;11.776;2023-03-01T21:57:22;19.67;;;16.07;;
9976;SDS011;5029;47.378;11.776;2023-03-01T22:02:25;18.10;;;16.17;;
9976;SDS011;5029;47.378;11.776;2023-03-01T22:07:29;17.57;;;15.77;;
9976;SDS011;5029;47.378;11.776;2023-03-01T22:12:33;19.00;;;15.13;;
9976;SDS011;5029;47.378;11.776;2023-03-01T22:17:37;16.07;;;14.43;;
9976;SDS011;5029;47.378;11.776;2023-03-01T22:22:40;16.83;;;14.67;;
9976;SDS011;5029;47.378;11.776;2023-03-01T22:27:45;17.27;;;14.23;;
9976;SDS011;5029;47.378;11.776;2023-03-01T22:32:48;17.13;;;15.13;;
9976;SDS011;5029;47.378;11.776;2023-03-01T22:37:52;16.73;;;14.87;;
9976;SDS011;5029;47.378;11.776;2023-03-01T22:42:56;18.37;;;15.30;;
9976;SDS011;5029;47.378;11.776;2023-03-01T22:48:00;17.40;;;14.93;;
9976;SDS011;5029;47.378;11.776;2023-03-01T22:53:05;17.77;;;14.97;;
9976;SDS011;5029;47.378;11.776;2023-03-01T22:58:10;18.20;;;16.00;;
9976;SDS011;5029;47.378;11.776;2023-03-01T23:03:13;17.00;;;15.13;;
9976;SDS011;5029;47.378;11.776;2023-03-01T23:08:17;16.63;;;14.23;;
9976;SDS011;5029;47.378;11.776;2023-03-01T23:13:22;16.13;;;13.93;;
9976;SDS011;5029;47.378;11.776;2023-03-01T23:18:26;16.67;;;14.87;;
9976;SDS011;5029;47.378;11.776;2023-03-01T23:23:29;16.80;;;14.30;;
9976;SDS011;5029;47.378;11.776;2023-03-01T23:28:34;18.20;;;14.93;;
9976;SDS011;5029;47.378;11.776;2023-03-01T23:33:41;16.90;;;14.63;;
9976;SDS011;5029;47.378;11.776;2023-03-01T23:38:45;18.00;;;14.93;;
9976;SDS011;5029;47.378;11.776;2023-03-01T23:43:52;17.97;;;15.87;;
9976;SDS011;5029;47.378;11.776;2023-03-01T23:48:56;18.37;;;15.40;;
9976;SDS011;5029;47.378;11.776;2023-03-01T23:54:00;18.10;;;15.90;;
9976;SDS011;5029;47.378;11.776;2023-03-01T23:59:07;18.90;;;16.20;;
